sensor_id;sensor_type;location;lat;lon;timestamp;pressure;altitude;pressure_sealevel;temperature;humidity
31585;BME280;18191;51.288;12.390;2023-03-18T00:02:43;48961.09;;;-144.47;50.59
31585;BME280;18191;51.288;12.390;2023-03-18T00:07:34;48986.97;;;-144.47;51.76
31585;BME280;18191;51.288;12.390;2023-03-18T00:12:25;49000.88;;;-144.47;51.56
31585;BME280;18191;51.288;12.390;2023-03-18T00:17:15;49016.78;;;-144.47;51.61
31585;BME280;18191;51.288;12.390;2023-03-18T00:22:05;48981.00;;;-144.47;51.24
31585;BME280;18191;51.288;12.390;2023-03-18T00:26:57;48981.00;;;-144.47;52.12
31585;BME280;18191;51.288;12.390;2023-03-18T00:31:47;49044.66;;;-144.47;52.18
31585;BME280;18191;51.288;12.390;2023-03-18T00:36:37;48986.97;;;-144.47;52.33
31585;BME280;18191;51.288;12.390;2023-03-18T00:41:29;48981.00;;;-144.47;52.08
31585;BME280;18191;51.288;12.390;2023-03-18T00:46:22;48988.94;;;-144.47;52.72
31585;BME280;18191;51.288;12.390;2023-03-18T00:51:14;48959.09;;;-144.47;53.69
31585;BME280;18191;51.288;12.390;2023-03-18T00:56:06;49018.78;;;-144.47;52.61
31585;BME280;18191;51.288;12.390;2023-03-18T01:00:57;48992.94;;;-144.47;53.29
31585;BME280;18191;51.288;12.390;2023-03-18T01:05:47;49012.81;;;-144.47;53.07
31585;BME280;18191;51.288;12.390;2023-03-18T01:10:38;48988.94;;;-144.47;53.83
31585;BME280;18191;51.288;12.390;2023-03-18T01:15:28;49000.88;;;-144.47;53.94
31585;BME280;18191;51.288;12.390;2023-03-18T01:20:19;49000.88;;;-144.47;54.30
31585;BME280;18191;51.288;12.390;2023-03-18T01:25:10;48973.03;;;-144.47;53.17
31585;BME280;18191;51.288;12.390;2023-03-18T01:30:00;48981.00;;;-144.47;53.50
31585;BME280;18191;51.288;12.390;2023-03-18T01:34:51;48977.00;;;-144.47;53.15
31585;BME280;18191;51.288;12.390;2023-03-18T01:39:41;48977.00;;;-144.47;54.01
31585;BME280;18191;51.288;12.390;2023-03-18T01:44:31;48988.94;;;-144.47;53.95
31585;BME280;18191;51.288;12.390;2023-03-18T01:49:22;48953.13;;;-144.47;53.18
31585;BME280;18191;51.288;12.390;2023-03-18T01:54:14;49004.84;;;-144.47;52.90
31585;BME280;18191;51.288;12.390;2023-03-18T01:59:04;48963.09;;;-144.47;53.00
31585;BME280;18191;51.288;12.390;2023-03-18T02:03:56;48953.13;;;-144.47;53.65
31585;BME280;18191;51.288;12.390;2023-03-18T02:08:47;48977.00;;;-144.47;53.73
31585;BME280;18191;51.288;12.390;2023-03-18T02:13:39;48973.03;;;-144.47;53.41
31585;BME280;18191;51.288;12.390;2023-03-18T02:18:32;48961.09;;;-144.47;53.81
31585;BME280;18191;51.288;12.390;2023-03-18T02:23:36;48973.03;;;-144.47;54.44
31585;BME280;18191;51.288;12.390;2023-03-18T02:28:31;49032.72;;;-144.47;54.53
31585;BME280;18191;51.288;12.390;2023-03-18T02:33:23;48977.00;;;-144.47;53.75
31585;BME280;18191;51.288;12.390;2023-03-18T02:38:14;49020.78;;;-144.47;54.58
31585;BME280;18191;51.288;12.390;2023-03-18T02:43:25;49008.84;;;-144.47;54.39
31585;BME280;18191;51.288;12.390;2023-03-18T02:48:16;49008.84;;;-144.47;55.12
31585;BME280;18191;51.288;12.390;2023-03-18T02:53:07;49004.84;;;-144.47;55.41
31585;BME280;18191;51.288;12.390;2023-03-18T02:58:00;48971.03;;;-144.47;56.49
31585;BME280;18191;51.288;12.390;2023-03-18T03:02:50;48992.94;;;-144.47;56.30
31585;BME280;18191;51.288;12.390;2023-03-18T03:07:40;48981.00;;;-144.47;56.71
31585;BME280;18191;51.288;12.390;2023-03-18T03:12:31;48984.97;;;-144.47;57.30
31585;BME280;18191;51.288;12.390;2023-03-18T03:17:21;48992.94;;;-144.47;57.39
31585;BME280;18191;51.288;12.390;2023-03-18T03:22:11;48979.00;;;-144.47;57.63
31585;BME280;18191;51.288;12.390;2023-03-18T03:27:02;48994.91;;;-144.47;57.49
31585;BME280;18191;51.288;12.390;2023-03-18T03:31:52;49016.78;;;-144.47;58.60
31585;BME280;18191;51.288;12.390;2023-03-18T03:36:43;48984.97;;;-144.47;58.19
31585;BME280;18191;51.288;12.390;2023-03-18T03:41:33;48984.97;;;-144.47;58.02
31585;BME280;18191;51.288;12.390;2023-03-18T03:46:23;49000.88;;;-144.47;58.29
31585;BME280;18191;51.288;12.390;2023-03-18T03:51:14;48973.03;;;-144.47;58.46
31585;BME280;18191;51.288;12.390;2023-03-18T03:56:04;48981.00;;;-144.47;59.10
31585;BME280;18191;51.288;12.390;2023-03-18T04:00:56;49000.88;;;-144.47;59.22
31585;BME280;18191;51.288;12.390;2023-03-18T04:05:47;49004.84;;;-144.47;59.53
31585;BME280;18191;51.288;12.390;2023-03-18T04:10:38;48981.00;;;-144.47;60.34
31585;BME280;18191;51.288;12.390;2023-03-18T04:15:28;49024.75;;;-144.47;60.25
31585;BME280;18191;51.288;12.390;2023-03-18T04:20:19;48996.91;;;-144.47;59.83
31585;BME280;18191;51.288;12.390;2023-03-18T04:25:10;48984.97;;;-144.47;59.72
31585;BME280;18191;51.288;12.390;2023-03-18T04:30:00;48971.03;;;-144.47;59.67
31585;BME280;18191;51.288;12.390;2023-03-18T04:34:50;48988.94;;;-144.47;59.78
31585;BME280;18191;51.288;12.390;2023-03-18T04:39:41;48986.97;;;-144.47;59.56
31585;BME280;18191;51.288;12.390;2023-03-18T04:44:31;49016.78;;;-144.47;59.86
31585;BME280;18191;51.288;12.390;2023-03-18T04:49:21;48969.06;;;-144.47;60.00
31585;BME280;18191;51.288;12.390;2023-03-18T04:54:12;48977.00;;;-144.47;60.13
31585;BME280;18191;51.288;12.390;2023-03-18T04:59:02;48981.00;;;-144.47;60.11
31585;BME280;18191;51.288;12.390;2023-03-18T05:03:52;48969.06;;;-144.47;60.55
31585;BME280;18191;51.288;12.390;2023-03-18T05:08:42;48988.94;;;-144.47;60.49
31585;BME280;18191;51.288;12.390;2023-03-18T05:13:33;49012.81;;;-144.47;60.83
31585;BME280;18191;51.288;12.390;2023-03-18T05:18:23;48996.91;;;-144.47;60.81
31585;BME280;18191;51.288;12.390;2023-03-18T05:23:13;48981.00;;;-144.47;60.97
31585;BME280;18191;51.288;12.390;2023-03-18T05:28:04;48977.00;;;-144.47;61.48
31585;BME280;18191;51.288;12.390;2023-03-18T05:32:55;49016.78;;;-144.47;61.04
31585;BME280;18191;51.288;12.390;2023-03-18T05:37:45;48981.00;;;-144.47;60.89
31585;BME280;18191;51.288;12.390;2023-03-18T05:42:36;48996.91;;;-144.47;60.81
31585;BME280;18191;51.288;12.390;2023-03-18T05:47:27;48982.97;;;-144.47;60.62
31585;BME280;18191;51.288;12.390;2023-03-18T05:52:17;49000.88;;;-144.47;61.16
31585;BME280;18191;51.288;12.390;2023-03-18T05:57:07;48979.00;;;-144.47;60.43
31585;BME280;18191;51.288;12.390;2023-03-18T06:01:58;49006.84;;;-144.47;60.18
31585;BME280;18191;51.288;12.390;2023-03-18T06:06:48;48996.91;;;-144.47;59.43
31585;BME280;18191;51.288;12.390;2023-03-18T06:11:38;48971.03;;;-144.47;59.69
31585;BME280;18191;51.288;12.390;2023-03-18T06:16:31;48984.97;;;-144.47;58.86
31585;BME280;18191;51.288;12.390;2023-03-18T06:21:22;49006.84;;;-144.47;59.11
31585;BME280;18191;51.288;12.390;2023-03-18T06:26:13;48986.97;;;-144.47;58.90
31585;BME280;18191;51.288;12.390;2023-03-18T06:31:04;48977.00;;;-144.47;59.63
31585;BME280;18191;51.288;12.390;2023-03-18T06:35:54;48961.09;;;-144.47;57.85
31585;BME280;18191;51.288;12.390;2023-03-18T06:40:45;49004.84;;;-144.47;57.25
31585;BME280;18191;51.288;12.390;2023-03-18T06:45:36;48992.94;;;-144.47;57.68
31585;BME280;18191;51.288;12.390;2023-03-18T06:50:26;48981.00;;;-144.47;57.36
31585;BME280;18191;51.288;12.390;2023-03-18T06:55:17;48961.09;;;-144.47;58.13
31585;BME280;18191;51.288;12.390;2023-03-18T07:00:07;49020.78;;;-144.47;57.82
31585;BME280;18191;51.288;12.390;2023-03-18T07:04:58;48965.06;;;-144.47;57.14
31585;BME280;18191;51.288;12.390;2023-03-18T07:09:49;49002.88;;;-144.47;56.11
31585;BME280;18191;51.288;12.390;2023-03-18T07:14:39;48967.06;;;-144.47;55.69
31585;BME280;18191;51.288;12.390;2023-03-18T07:19:30;48990.94;;;-144.47;55.33
31585;BME280;18191;51.288;12.390;2023-03-18T07:24:22;48949.16;;;-144.47;53.68
31585;BME280;18191;51.288;12.390;2023-03-18T07:29:12;48975.03;;;-144.47;52.58
31585;BME280;18191;51.288;12.390;2023-03-18T07:34:02;48953.13;;;-144.47;53.21
31585;BME280;18191;51.288;12.390;2023-03-18T07:38:53;48965.06;;;-144.47;51.99
31585;BME280;18191;51.288;12.390;2023-03-18T07:43:43;48953.13;;;-144.47;50.20
31585;BME280;18191;51.288;12.390;2023-03-18T07:48:34;48969.06;;;-144.47;50.36
31585;BME280;18191;51.288;12.390;2023-03-18T07:53:24;48941.19;;;-144.47;47.43
31585;BME280;18191;51.288;12.390;2023-03-18T07:58:15;48961.09;;;-144.47;48.69
31585;BME280;18191;51.288;12.390;2023-03-18T08:03:05;48965.06;;;-144.47;47.87
31585;BME280;18191;51.288;12.390;2023-03-18T08:07:55;48931.25;;;-144.47;48.28
31585;BME280;18191;51.288;12.390;2023-03-18T08:12:45;48961.09;;;-144.47;47.85
31585;BME280;18191;51.288;12.390;2023-03-18T08:17:36;48951.16;;;-144.47;47.78
31585;BME280;18191;51.288;12.390;2023-03-18T08:22:26;48933.25;;;-144.47;46.39
31585;BME280;18191;51.288;12.390;2023-03-18T08:27:17;48981.00;;;-144.47;47.43
31585;BME280;18191;51.288;12.390;2023-03-18T08:32:07;48929.28;;;-144.47;47.23
31585;BME280;18191;51.288;12.390;2023-03-18T08:36:58;48923.31;;;-144.47;47.56
31585;BME280;18191;51.288;12.390;2023-03-18T08:41:48;48969.06;;;-144.47;47.49
31585;BME280;18191;51.288;12.390;2023-03-18T08:46:38;48935.25;;;-144.47;46.85
31585;BME280;18191;51.288;12.390;2023-03-18T08:51:28;48929.28;;;-144.47;47.20
31585;BME280;18191;51.288;12.390;2023-03-18T08:56:19;48953.13;;;-144.47;46.61
31585;BME280;18191;51.288;12.390;2023-03-18T09:01:09;48941.19;;;-144.47;46.06
31585;BME280;18191;51.288;12.390;2023-03-18T09:05:59;48937.22;;;-144.47;46.10
31585;BME280;18191;51.288;12.390;2023-03-18T09:10:50;48939.22;;;-144.47;44.89
31585;BME280;18191;51.288;12.390;2023-03-18T09:15:41;48957.13;;;-144.47;43.71
31585;BME280;18191;51.288;12.390;2023-03-18T09:20:31;48937.22;;;-144.47;42.05
31585;BME280;18191;51.288;12.390;2023-03-18T09:25:22;48945.19;;;-144.47;41.73
31585;BME280;18191;51.288;12.390;2023-03-18T09:30:13;48931.25;;;-144.47;41.09
31585;BME280;18191;51.288;12.390;2023-03-18T09:35:04;48931.25;;;-144.47;40.94
31585;BME280;18191;51.288;12.390;2023-03-18T09:39:55;48909.38;;;-144.47;41.11
31585;BME280;18191;51.288;12.390;2023-03-18T09:44:46;48917.34;;;-144.47;41.31
31585;BME280;18191;51.288;12.390;2023-03-18T09:49:41;48921.31;;;-144.47;40.86
31585;BME280;18191;51.288;12.390;2023-03-18T09:54:38;48941.19;;;-144.47;41.08
31585;BME280;18191;51.288;12.390;2023-03-18T09:59:36;48969.06;;;-144.47;41.86
31585;BME280;18191;51.288;12.390;2023-03-18T10:04:36;48945.19;;;-144.47;41.15
31585;BME280;18191;51.288;12.390;2023-03-18T10:09:33;48925.28;;;-144.47;41.09
31585;BME280;18191;51.288;12.390;2023-03-18T10:19:15;48953.13;;;-144.47;40.12
31585;BME280;18191;51.288;12.390;2023-03-18T10:34:15;48919.31;;;-144.47;38.70
31585;BME280;18191;51.288;12.390;2023-03-18T10:39:15;48933.25;;;-144.47;38.71
31585;BME280;18191;51.288;12.390;2023-03-18T10:49:15;48961.09;;;-144.47;39.14
31585;BME280;18191;51.288;12.390;2023-03-18T10:54:29;48925.28;;;-144.47;39.23
31585;BME280;18191;51.288;12.390;2023-03-18T10:59:19;48969.06;;;-144.47;38.56
31585;BME280;18191;51.288;12.390;2023-03-18T11:04:11;48939.22;;;-144.47;37.91
31585;BME280;18191;51.288;12.390;2023-03-18T11:09:08;48929.28;;;-144.47;37.92
31585;BME280;18191;51.288;12.390;2023-03-18T11:13:59;48933.25;;;-144.47;37.04
31585;BME280;18191;51.288;12.390;2023-03-18T11:18:50;48945.19;;;-144.47;37.57
31585;BME280;18191;51.288;12.390;2023-03-18T11:23:48;48957.13;;;-144.47;36.28
31585;BME280;18191;51.288;12.390;2023-03-18T11:28:45;48953.13;;;-144.47;37.16
31585;BME280;18191;51.288;12.390;2023-03-18T11:33:36;48951.16;;;-144.47;37.30
31585;BME280;18191;51.288;12.390;2023-03-18T11:38:28;48965.06;;;-144.47;37.06
31585;BME280;18191;51.288;12.390;2023-03-18T11:43:19;48937.22;;;-144.47;39.09
31585;BME280;18191;51.288;12.390;2023-03-18T11:48:14;48941.19;;;-144.47;38.39
31585;BME280;18191;51.288;12.390;2023-03-18T11:53:26;48909.38;;;-144.47;38.00
31585;BME280;18191;51.288;12.390;2023-03-18T12:03:46;48945.19;;;-144.47;37.67
31585;BME280;18191;51.288;12.390;2023-03-18T12:08:49;48949.16;;;-144.47;37.40
31585;BME280;18191;51.288;12.390;2023-03-18T12:13:46;48951.16;;;-144.47;36.93
31585;BME280;18191;51.288;12.390;2023-03-18T12:23:44;48917.34;;;-144.47;37.47
31585;BME280;18191;51.288;12.390;2023-03-18T12:28:49;48917.34;;;-144.47;38.38
31585;BME280;18191;51.288;12.390;2023-03-18T12:33:50;48937.22;;;-144.47;38.82
31585;BME280;18191;51.288;12.390;2023-03-18T12:44:01;48933.25;;;-144.47;39.01
31585;BME280;18191;51.288;12.390;2023-03-18T12:49:00;48921.31;;;-144.47;38.39
31585;BME280;18191;51.288;12.390;2023-03-18T12:53:53;48929.28;;;-144.47;38.22
31585;BME280;18191;51.288;12.390;2023-03-18T12:58:46;48986.97;;;-144.47;38.79
31585;BME280;18191;51.288;12.390;2023-03-18T13:03:38;48951.16;;;-144.47;37.95
31585;BME280;18191;51.288;12.390;2023-03-18T13:13:39;48929.28;;;-144.47;38.84
31585;BME280;18191;51.288;12.390;2023-03-18T13:18:38;48945.19;;;-144.47;38.26
31585;BME280;18191;51.288;12.390;2023-03-18T13:43:37;48941.19;;;-144.47;37.69
31585;BME280;18191;51.288;12.390;2023-03-18T13:48:29;48949.16;;;-144.47;37.93
31585;BME280;18191;51.288;12.390;2023-03-18T13:53:24;48939.22;;;-144.47;37.68
31585;BME280;18191;51.288;12.390;2023-03-18T13:58:19;48949.16;;;-144.47;37.40
31585;BME280;18191;51.288;12.390;2023-03-18T14:03:12;48961.09;;;-144.47;37.05
31585;BME280;18191;51.288;12.390;2023-03-18T14:13:26;48949.16;;;-144.47;38.00
31585;BME280;18191;51.288;12.390;2023-03-18T14:18:25;48943.19;;;-144.47;37.58
31585;BME280;18191;51.288;12.390;2023-03-18T14:28:17;48909.38;;;-144.47;37.37
31585;BME280;18191;51.288;12.390;2023-03-18T14:38:30;48925.28;;;-144.47;37.16
31585;BME280;18191;51.288;12.390;2023-03-18T14:43:24;48949.16;;;-144.47;36.96
31585;BME280;18191;51.288;12.390;2023-03-18T14:48:26;48941.19;;;-144.47;39.06
31585;BME280;18191;51.288;12.390;2023-03-18T14:53:40;48937.22;;;-144.47;39.00
31585;BME280;18191;51.288;12.390;2023-03-18T14:58:28;48925.28;;;-144.47;38.78
31585;BME280;18191;51.288;12.390;2023-03-18T15:03:20;48973.03;;;-144.47;38.64
31585;BME280;18191;51.288;12.390;2023-03-18T15:08:15;48973.03;;;-144.47;38.57
31585;BME280;18191;51.288;12.390;2023-03-18T15:13:11;48949.16;;;-144.47;39.52
31585;BME280;18191;51.288;12.390;2023-03-18T15:18:04;48965.06;;;-144.47;39.17
31585;BME280;18191;51.288;12.390;2023-03-18T15:23:00;48925.28;;;-144.47;39.60
31585;BME280;18191;51.288;12.390;2023-03-18T15:27:52;48982.97;;;-144.47;39.98
31585;BME280;18191;51.288;12.390;2023-03-18T15:32:44;48937.22;;;-144.47;37.89
31585;BME280;18191;51.288;12.390;2023-03-18T15:37:46;48947.16;;;-144.47;37.53
31585;BME280;18191;51.288;12.390;2023-03-18T15:42:37;48937.22;;;-144.47;37.19
31585;BME280;18191;51.288;12.390;2023-03-18T15:47:28;48909.38;;;-144.47;36.84
31585;BME280;18191;51.288;12.390;2023-03-18T15:52:19;48915.34;;;-144.47;37.10
31585;BME280;18191;51.288;12.390;2023-03-18T15:57:12;48933.25;;;-144.47;38.33
31585;BME280;18191;51.288;12.390;2023-03-18T16:02:10;48935.25;;;-144.47;38.58
31585;BME280;18191;51.288;12.390;2023-03-18T16:07:02;48927.28;;;-144.47;38.84
31585;BME280;18191;51.288;12.390;2023-03-18T16:11:57;48949.16;;;-144.47;39.68
31585;BME280;18191;51.288;12.390;2023-03-18T16:16:49;48955.13;;;-144.47;39.62
31585;BME280;18191;51.288;12.390;2023-03-18T16:21:40;48937.22;;;-144.47;40.94
31585;BME280;18191;51.288;12.390;2023-03-18T16:26:31;48949.16;;;-144.47;41.48
31585;BME280;18191;51.288;12.390;2023-03-18T16:31:22;48901.41;;;-144.47;42.79
31585;BME280;18191;51.288;12.390;2023-03-18T16:36:18;48933.25;;;-144.47;43.95
31585;BME280;18191;51.288;12.390;2023-03-18T16:41:10;48929.28;;;-144.47;44.65
31585;BME280;18191;51.288;12.390;2023-03-18T16:46:00;48937.22;;;-144.47;45.43
31585;BME280;18191;51.288;12.390;2023-03-18T16:50:53;48881.53;;;-144.47;45.85
31585;BME280;18191;51.288;12.390;2023-03-18T16:55:44;48984.97;;;-144.47;46.75
31585;BME280;18191;51.288;12.390;2023-03-18T17:00:34;48949.16;;;-144.47;47.67
31585;BME280;18191;51.288;12.390;2023-03-18T17:05:26;48961.09;;;-144.47;48.46
31585;BME280;18191;51.288;12.390;2023-03-18T17:10:17;48937.22;;;-144.47;50.14
31585;BME280;18191;51.288;12.390;2023-03-18T17:15:09;48953.13;;;-144.47;52.05
31585;BME280;18191;51.288;12.390;2023-03-18T17:20:01;49002.88;;;-144.47;52.16
31585;BME280;18191;51.288;12.390;2023-03-18T17:24:53;48953.13;;;-144.47;53.48
31585;BME280;18191;51.288;12.390;2023-03-18T17:29:44;48909.38;;;-144.47;54.94
31585;BME280;18191;51.288;12.390;2023-03-18T17:34:34;48957.13;;;-144.47;55.92
31585;BME280;18191;51.288;12.390;2023-03-18T17:39:24;48959.09;;;-144.47;56.62
31585;BME280;18191;51.288;12.390;2023-03-18T17:44:21;48977.00;;;-144.47;57.36
31585;BME280;18191;51.288;12.390;2023-03-18T17:49:13;48975.03;;;-144.47;58.41
31585;BME280;18191;51.288;12.390;2023-03-18T17:54:03;48961.09;;;-144.47;59.16
31585;BME280;18191;51.288;12.390;2023-03-18T17:58:55;48949.16;;;-144.47;60.75
31585;BME280;18191;51.288;12.390;2023-03-18T18:03:45;48925.28;;;-144.47;61.66
31585;BME280;18191;51.288;12.390;2023-03-18T18:08:36;48955.13;;;-144.47;63.05
31585;BME280;18191;51.288;12.390;2023-03-18T18:13:27;48925.28;;;-144.47;63.71
31585;BME280;18191;51.288;12.390;2023-03-18T18:18:21;48969.06;;;-144.47;64.04
31585;BME280;18191;51.288;12.390;2023-03-18T18:23:15;48965.06;;;-144.47;64.42
31585;BME280;18191;51.288;12.390;2023-03-18T18:28:13;48949.16;;;-144.47;64.92
31585;BME280;18191;51.288;12.390;2023-03-18T18:33:06;48992.94;;;-144.47;65.13
31585;BME280;18191;51.288;12.390;2023-03-18T18:37:57;48982.97;;;-144.47;65.20
31585;BME280;18191;51.288;12.390;2023-03-18T18:42:47;48951.16;;;-144.47;65.63
31585;BME280;18191;51.288;12.390;2023-03-18T18:47:37;48977.00;;;-144.47;66.18
31585;BME280;18191;51.288;12.390;2023-03-18T18:52:27;48965.06;;;-144.47;66.25
31585;BME280;18191;51.288;12.390;2023-03-18T18:57:21;48979.00;;;-144.47;66.35
31585;BME280;18191;51.288;12.390;2023-03-18T19:02:29;48981.00;;;-144.47;65.53
31585;BME280;18191;51.288;12.390;2023-03-18T19:07:19;49004.84;;;-144.47;64.66
31585;BME280;18191;51.288;12.390;2023-03-18T19:12:14;48957.13;;;-144.47;64.52
31585;BME280;18191;51.288;12.390;2023-03-18T19:17:05;48992.94;;;-144.47;65.08
31585;BME280;18191;51.288;12.390;2023-03-18T19:21:55;48969.06;;;-144.47;65.23
31585;BME280;18191;51.288;12.390;2023-03-18T19:26:46;48981.00;;;-144.47;65.68
31585;BME280;18191;51.288;12.390;2023-03-18T19:31:36;48969.06;;;-144.47;65.76
31585;BME280;18191;51.288;12.390;2023-03-18T19:36:29;48969.06;;;-144.47;66.01
31585;BME280;18191;51.288;12.390;2023-03-18T19:41:20;48984.97;;;-144.47;65.85
31585;BME280;18191;51.288;12.390;2023-03-18T19:46:13;48977.00;;;-144.47;64.91
31585;BME280;18191;51.288;12.390;2023-03-18T19:51:05;48981.00;;;-144.47;65.82
31585;BME280;18191;51.288;12.390;2023-03-18T19:55:57;48992.94;;;-144.47;66.12
31585;BME280;18191;51.288;12.390;2023-03-18T20:00:47;48969.06;;;-144.47;66.66
31585;BME280;18191;51.288;12.390;2023-03-18T20:05:37;48965.06;;;-144.47;66.02
31585;BME280;18191;51.288;12.390;2023-03-18T20:10:27;48971.03;;;-144.47;65.33
31585;BME280;18191;51.288;12.390;2023-03-18T20:15:22;48988.94;;;-144.47;64.32
31585;BME280;18191;51.288;12.390;2023-03-18T20:20:17;48977.00;;;-144.47;64.29
31585;BME280;18191;51.288;12.390;2023-03-18T20:25:14;48953.13;;;-144.47;64.59
31585;BME280;18191;51.288;12.390;2023-03-18T20:30:10;49004.84;;;-144.47;64.87
31585;BME280;18191;51.288;12.390;2023-03-18T20:35:09;48941.19;;;-144.47;65.39
31585;BME280;18191;51.288;12.390;2023-03-18T20:40:00;48992.94;;;-144.47;63.38
31585;BME280;18191;51.288;12.390;2023-03-18T20:44:50;48981.00;;;-144.47;65.10
31585;BME280;18191;51.288;12.390;2023-03-18T20:49:40;49012.81;;;-144.47;64.77
31585;BME280;18191;51.288;12.390;2023-03-18T20:54:33;48945.19;;;-144.47;65.15
31585;BME280;18191;51.288;12.390;2023-03-18T20:59:24;48986.97;;;-144.47;65.32
31585;BME280;18191;51.288;12.390;2023-03-18T21:04:14;48981.00;;;-144.47;65.22
31585;BME280;18191;51.288;12.390;2023-03-18T21:09:05;48979.00;;;-144.47;64.84
31585;BME280;18191;51.288;12.390;2023-03-18T21:13:58;48973.03;;;-144.47;65.23
31585;BME280;18191;51.288;12.390;2023-03-18T21:18:48;49002.88;;;-144.47;65.82
31585;BME280;18191;51.288;12.390;2023-03-18T21:23:39;48965.06;;;-144.47;65.46
31585;BME280;18191;51.288;12.390;2023-03-18T21:28:29;48939.22;;;-144.47;64.69
31585;BME280;18191;51.288;12.390;2023-03-18T21:38:12;48984.97;;;-144.47;64.83
31585;BME280;18191;51.288;12.390;2023-03-18T21:43:08;48979.00;;;-144.47;64.84
31585;BME280;18191;51.288;12.390;2023-03-18T21:48:05;48967.06;;;-144.47;65.31
31585;BME280;18191;51.288;12.390;2023-03-18T21:52:55;48961.09;;;-144.47;65.28
31585;BME280;18191;51.288;12.390;2023-03-18T21:57:46;49012.81;;;-144.47;64.79
31585;BME280;18191;51.288;12.390;2023-03-18T22:02:36;48971.03;;;-144.47;65.29
31585;BME280;18191;51.288;12.390;2023-03-18T22:07:27;49012.81;;;-144.47;65.58
31585;BME280;18191;51.288;12.390;2023-03-18T22:12:39;48957.13;;;-144.47;66.00
31585;BME280;18191;51.288;12.390;2023-03-18T22:17:29;49000.88;;;-144.47;66.21
31585;BME280;18191;51.288;12.390;2023-03-18T22:22:21;48981.00;;;-144.47;65.95
31585;BME280;18191;51.288;12.390;2023-03-18T22:27:18;48982.97;;;-144.47;66.19
31585;BME280;18191;51.288;12.390;2023-03-18T22:32:15;48984.97;;;-144.47;66.21
31585;BME280;18191;51.288;12.390;2023-03-18T22:37:13;48981.00;;;-144.47;66.32
31585;BME280;18191;51.288;12.390;2023-03-18T22:42:08;48961.09;;;-144.47;66.85
31585;BME280;18191;51.288;12.390;2023-03-18T22:47:01;48988.94;;;-144.47;66.96
31585;BME280;18191;51.288;12.390;2023-03-18T22:51:52;48959.09;;;-144.47;67.56
31585;BME280;18191;51.288;12.390;2023-03-18T22:56:42;49008.84;;;-144.47;67.65
31585;BME280;18191;51.288;12.390;2023-03-18T23:01:32;49016.78;;;-144.47;67.71
31585;BME280;18191;51.288;12.390;2023-03-18T23:06:23;48973.03;;;-144.47;67.47
31585;BME280;18191;51.288;12.390;2023-03-18T23:11:14;48996.91;;;-144.47;68.07
31585;BME280;18191;51.288;12.390;2023-03-18T23:16:06;48961.09;;;-144.47;67.56
31585;BME280;18191;51.288;12.390;2023-03-18T23:20:57;49008.84;;;-144.47;67.76
31585;BME280;18191;51.288;12.390;2023-03-18T23:25:48;48969.06;;;-144.47;68.20
31585;BME280;18191;51.288;12.390;2023-03-18T23:30:39;48961.09;;;-144.47;67.90
31585;BME280;18191;51.288;12.390;2023-03-18T23:35:30;48988.94;;;-144.47;68.57
31585;BME280;18191;51.288;12.390;2023-03-18T23:40:21;48963.09;;;-144.47;68.44
31585;BME280;18191;51.288;12.390;2023-03-18T23:45:12;49000.88;;;-144.47;68.70
31585;BME280;18191;51.288;12.390;2023-03-18T23:50:05;48990.94;;;-144.47;69.05
31585;BME280;18191;51.288;12.390;2023-03-18T23:54:56;48965.06;;;-144.47;68.74
31585;BME280;18191;51.288;12.390;2023-03-18T23:59:46;48981.00;;;-144.47;68.79
